sensor_id;sensor_type;location;lat;lon;timestamp;P1;durP1;ratioP1;P2;durP2;ratioP2
21697;SDS011;11010;49.548;11.926;2023-03-25T00:00:13;7.70;;;1.50;;
21697;SDS011;11010;49.548;11.926;2023-03-25T00:02:44;6.27;;;1.40;;
21697;SDS011;11010;49.548;11.926;2023-03-25T00:05:14;5.67;;;1.50;;
21697;SDS011;11010;49.548;11.926;2023-03-25T00:07:43;6.03;;;1.60;;
21697;SDS011;11010;49.548;11.926;2023-03-25T00:10:11;5.23;;;1.40;;
21697;SDS011;11010;49.548;11.926;2023-03-25T00:12:40;6.20;;;1.53;;
21697;SDS011;11010;49.548;11.926;2023-03-25T00:15:09;7.10;;;1.60;;
21697;SDS011;11010;49.548;11.926;2023-03-25T00:17:37;5.63;;;1.60;;
21697;SDS011;11010;49.548;11.926;2023-03-25T00:20:06;5.27;;;1.40;;
21697;SDS011;11010;49.548;11.926;2023-03-25T00:22:37;5.33;;;1.40;;
21697;SDS011;11010;49.548;11.926;2023-03-25T00:25:11;6.30;;;1.53;;
21697;SDS011;11010;49.548;11.926;2023-03-25T00:27:45;6.03;;;1.50;;
21697;SDS011;11010;49.548;11.926;2023-03-25T00:30:14;6.90;;;1.70;;
21697;SDS011;11010;49.548;11.926;2023-03-25T00:32:43;5.83;;;1.33;;
21697;SDS011;11010;49.548;11.926;2023-03-25T00:35:18;6.47;;;1.63;;
21697;SDS011;11010;49.548;11.926;2023-03-25T00:37:47;7.80;;;1.50;;
21697;SDS011;11010;49.548;11.926;2023-03-25T00:40:17;7.07;;;1.63;;
21697;SDS011;11010;49.548;11.926;2023-03-25T00:42:45;7.53;;;1.50;;
21697;SDS011;11010;49.548;11.926;2023-03-25T00:45:15;6.50;;;1.50;;
21697;SDS011;11010;49.548;11.926;2023-03-25T00:47:43;5.83;;;1.50;;
21697;SDS011;11010;49.548;11.926;2023-03-25T00:50:10;6.57;;;1.53;;
21697;SDS011;11010;49.548;11.926;2023-03-25T00:52:38;6.57;;;1.60;;
21697;SDS011;11010;49.548;11.926;2023-03-25T00:55:06;7.20;;;1.70;;
21697;SDS011;11010;49.548;11.926;2023-03-25T00:57:34;6.23;;;1.53;;
21697;SDS011;11010;49.548;11.926;2023-03-25T01:00:05;6.97;;;1.93;;
21697;SDS011;11010;49.548;11.926;2023-03-25T01:02:35;5.43;;;1.37;;
21697;SDS011;11010;49.548;11.926;2023-03-25T01:05:05;5.53;;;1.53;;
21697;SDS011;11010;49.548;11.926;2023-03-25T01:07:32;6.03;;;1.70;;
21697;SDS011;11010;49.548;11.926;2023-03-25T01:10:01;5.43;;;1.30;;
21697;SDS011;11010;49.548;11.926;2023-03-25T01:12:30;5.33;;;1.50;;
21697;SDS011;11010;49.548;11.926;2023-03-25T01:14:57;5.23;;;1.50;;
21697;SDS011;11010;49.548;11.926;2023-03-25T01:17:24;7.47;;;1.50;;
21697;SDS011;11010;49.548;11.926;2023-03-25T01:19:52;5.33;;;1.23;;
21697;SDS011;11010;49.548;11.926;2023-03-25T01:22:19;5.47;;;1.37;;
21697;SDS011;11010;49.548;11.926;2023-03-25T01:24:46;5.97;;;1.40;;
21697;SDS011;11010;49.548;11.926;2023-03-25T01:27:13;7.33;;;1.73;;
21697;SDS011;11010;49.548;11.926;2023-03-25T01:29:40;6.47;;;1.50;;
21697;SDS011;11010;49.548;11.926;2023-03-25T01:32:07;5.20;;;1.40;;
21697;SDS011;11010;49.548;11.926;2023-03-25T01:34:34;6.10;;;1.30;;
21697;SDS011;11010;49.548;11.926;2023-03-25T01:37:04;6.53;;;1.57;;
21697;SDS011;11010;49.548;11.926;2023-03-25T01:39:31;6.37;;;1.57;;
21697;SDS011;11010;49.548;11.926;2023-03-25T01:41:59;7.00;;;1.60;;
21697;SDS011;11010;49.548;11.926;2023-03-25T01:46:55;7.03;;;1.60;;
21697;SDS011;11010;49.548;11.926;2023-03-25T01:49:25;5.70;;;1.60;;
21697;SDS011;11010;49.548;11.926;2023-03-25T01:52:04;7.43;;;1.60;;
21697;SDS011;11010;49.548;11.926;2023-03-25T01:54:34;5.23;;;1.50;;
21697;SDS011;11010;49.548;11.926;2023-03-25T01:57:04;6.63;;;1.50;;
21697;SDS011;11010;49.548;11.926;2023-03-25T01:59:33;10.37;;;1.53;;
21697;SDS011;11010;49.548;11.926;2023-03-25T02:02:01;6.97;;;1.60;;
21697;SDS011;11010;49.548;11.926;2023-03-25T02:04:33;6.03;;;1.40;;
21697;SDS011;11010;49.548;11.926;2023-03-25T02:07:17;6.37;;;1.60;;
21697;SDS011;11010;49.548;11.926;2023-03-25T02:09:45;6.93;;;1.63;;
21697;SDS011;11010;49.548;11.926;2023-03-25T02:12:12;6.50;;;1.63;;
21697;SDS011;11010;49.548;11.926;2023-03-25T02:14:39;6.30;;;1.60;;
21697;SDS011;11010;49.548;11.926;2023-03-25T02:17:17;5.43;;;1.33;;
21697;SDS011;11010;49.548;11.926;2023-03-25T02:28:34;6.67;;;1.70;;
21697;SDS011;11010;49.548;11.926;2023-03-25T02:36:43;6.63;;;1.53;;
21697;SDS011;11010;49.548;11.926;2023-03-25T02:42:46;6.20;;;1.30;;
21697;SDS011;11010;49.548;11.926;2023-03-25T02:48:25;4.70;;;1.03;;
21697;SDS011;11010;49.548;11.926;2023-03-25T02:50:59;7.47;;;1.30;;
21697;SDS011;11010;49.548;11.926;2023-03-25T02:53:32;4.77;;;1.07;;
21697;SDS011;11010;49.548;11.926;2023-03-25T02:56:03;6.97;;;1.20;;
21697;SDS011;11010;49.548;11.926;2023-03-25T02:58:37;5.20;;;1.23;;
21697;SDS011;11010;49.548;11.926;2023-03-25T03:01:07;4.37;;;1.10;;
21697;SDS011;11010;49.548;11.926;2023-03-25T03:03:36;7.47;;;1.20;;
21697;SDS011;11010;49.548;11.926;2023-03-25T03:06:03;5.33;;;1.10;;
21697;SDS011;11010;49.548;11.926;2023-03-25T03:17:05;4.13;;;1.10;;
21697;SDS011;11010;49.548;11.926;2023-03-25T03:19:44;3.43;;;1.00;;
21697;SDS011;11010;49.548;11.926;2023-03-25T03:22:38;4.23;;;1.03;;
21697;SDS011;11010;49.548;11.926;2023-03-25T03:25:17;4.73;;;1.17;;
21697;SDS011;11010;49.548;11.926;2023-03-25T03:28:05;6.13;;;1.23;;
21697;SDS011;11010;49.548;11.926;2023-03-25T03:30:43;4.10;;;1.10;;
21697;SDS011;11010;49.548;11.926;2023-03-25T03:36:02;5.57;;;1.10;;
21697;SDS011;11010;49.548;11.926;2023-03-25T03:38:44;2.90;;;0.70;;
21697;SDS011;11010;49.548;11.926;2023-03-25T03:41:17;3.53;;;0.80;;
21697;SDS011;11010;49.548;11.926;2023-03-25T03:43:47;3.03;;;0.80;;
21697;SDS011;11010;49.548;11.926;2023-03-25T03:46:30;3.03;;;0.83;;
21697;SDS011;11010;49.548;11.926;2023-03-25T03:48:59;4.20;;;0.90;;
21697;SDS011;11010;49.548;11.926;2023-03-25T03:51:29;3.73;;;1.00;;
21697;SDS011;11010;49.548;11.926;2023-03-25T03:54:12;5.63;;;0.90;;
21697;SDS011;11010;49.548;11.926;2023-03-25T03:56:56;4.23;;;0.87;;
21697;SDS011;11010;49.548;11.926;2023-03-25T03:59:37;3.60;;;0.80;;
21697;SDS011;11010;49.548;11.926;2023-03-25T04:03:10;5.07;;;0.93;;
21697;SDS011;11010;49.548;11.926;2023-03-25T04:05:16;3.93;;;0.90;;
21697;SDS011;11010;49.548;11.926;2023-03-25T04:07:48;6.73;;;0.90;;
21697;SDS011;11010;49.548;11.926;2023-03-25T04:13:01;4.00;;;0.70;;
21697;SDS011;11010;49.548;11.926;2023-03-25T04:15:32;5.20;;;0.80;;
21697;SDS011;11010;49.548;11.926;2023-03-25T04:17:59;4.80;;;0.93;;
21697;SDS011;11010;49.548;11.926;2023-03-25T04:20:27;5.17;;;0.90;;
21697;SDS011;11010;49.548;11.926;2023-03-25T04:23:00;5.00;;;1.00;;
21697;SDS011;11010;49.548;11.926;2023-03-25T04:25:30;2.77;;;0.70;;
21697;SDS011;11010;49.548;11.926;2023-03-25T04:28:00;4.53;;;1.10;;
21697;SDS011;11010;49.548;11.926;2023-03-25T04:30:27;5.10;;;0.93;;
21697;SDS011;11010;49.548;11.926;2023-03-25T04:32:55;5.27;;;0.80;;
21697;SDS011;11010;49.548;11.926;2023-03-25T04:35:22;4.73;;;0.90;;
21697;SDS011;11010;49.548;11.926;2023-03-25T04:37:51;5.37;;;0.97;;
21697;SDS011;11010;49.548;11.926;2023-03-25T04:47:56;5.10;;;0.90;;
21697;SDS011;11010;49.548;11.926;2023-03-25T04:50:25;2.93;;;0.60;;
21697;SDS011;11010;49.548;11.926;2023-03-25T04:52:53;5.50;;;0.90;;
21697;SDS011;11010;49.548;11.926;2023-03-25T04:55:25;6.20;;;1.20;;
21697;SDS011;11010;49.548;11.926;2023-03-25T04:57:53;2.83;;;0.87;;
21697;SDS011;11010;49.548;11.926;2023-03-25T05:00:21;3.73;;;0.70;;
21697;SDS011;11010;49.548;11.926;2023-03-25T05:02:51;3.83;;;0.87;;
21697;SDS011;11010;49.548;11.926;2023-03-25T05:05:21;3.33;;;0.87;;
21697;SDS011;11010;49.548;11.926;2023-03-25T05:07:51;4.50;;;0.90;;
21697;SDS011;11010;49.548;11.926;2023-03-25T05:10:20;5.37;;;0.90;;
21697;SDS011;11010;49.548;11.926;2023-03-25T05:12:49;4.80;;;0.90;;
21697;SDS011;11010;49.548;11.926;2023-03-25T05:15:16;7.30;;;1.00;;
21697;SDS011;11010;49.548;11.926;2023-03-25T05:17:43;3.90;;;0.87;;
21697;SDS011;11010;49.548;11.926;2023-03-25T05:20:11;5.43;;;0.70;;
21697;SDS011;11010;49.548;11.926;2023-03-25T05:22:39;4.60;;;0.90;;
21697;SDS011;11010;49.548;11.926;2023-03-25T05:25:08;2.27;;;0.60;;
21697;SDS011;11010;49.548;11.926;2023-03-25T05:27:36;3.80;;;0.80;;
21697;SDS011;11010;49.548;11.926;2023-03-25T05:30:05;2.50;;;0.70;;
21697;SDS011;11010;49.548;11.926;2023-03-25T05:32:32;5.20;;;1.00;;
21697;SDS011;11010;49.548;11.926;2023-03-25T05:35:00;2.27;;;0.53;;
21697;SDS011;11010;49.548;11.926;2023-03-25T05:37:28;4.53;;;0.80;;
21697;SDS011;11010;49.548;11.926;2023-03-25T05:39:56;2.87;;;0.83;;
21697;SDS011;11010;49.548;11.926;2023-03-25T05:42:23;3.00;;;0.80;;
21697;SDS011;11010;49.548;11.926;2023-03-25T05:44:51;1.30;;;0.60;;
21697;SDS011;11010;49.548;11.926;2023-03-25T05:47:22;1.30;;;0.50;;
21697;SDS011;11010;49.548;11.926;2023-03-25T05:49:51;3.30;;;0.67;;
21697;SDS011;11010;49.548;11.926;2023-03-25T05:52:19;2.53;;;0.60;;
21697;SDS011;11010;49.548;11.926;2023-03-25T05:54:50;6.57;;;1.00;;
21697;SDS011;11010;49.548;11.926;2023-03-25T05:57:17;3.73;;;0.80;;
21697;SDS011;11010;49.548;11.926;2023-03-25T05:59:44;2.37;;;0.70;;
21697;SDS011;11010;49.548;11.926;2023-03-25T06:02:12;3.10;;;0.70;;
21697;SDS011;11010;49.548;11.926;2023-03-25T06:04:41;2.87;;;0.83;;
21697;SDS011;11010;49.548;11.926;2023-03-25T06:07:09;1.27;;;0.50;;
21697;SDS011;11010;49.548;11.926;2023-03-25T06:09:45;1.30;;;0.60;;
21697;SDS011;11010;49.548;11.926;2023-03-25T06:12:14;3.47;;;0.80;;
21697;SDS011;11010;49.548;11.926;2023-03-25T06:14:43;4.03;;;0.67;;
21697;SDS011;11010;49.548;11.926;2023-03-25T06:17:14;2.47;;;0.70;;
21697;SDS011;11010;49.548;11.926;2023-03-25T06:19:44;1.83;;;0.57;;
21697;SDS011;11010;49.548;11.926;2023-03-25T06:22:11;1.63;;;0.63;;
21697;SDS011;11010;49.548;11.926;2023-03-25T06:24:39;2.20;;;0.67;;
21697;SDS011;11010;49.548;11.926;2023-03-25T06:27:14;4.00;;;0.77;;
21697;SDS011;11010;49.548;11.926;2023-03-25T06:29:43;1.87;;;0.60;;
21697;SDS011;11010;49.548;11.926;2023-03-25T06:32:12;4.37;;;0.80;;
21697;SDS011;11010;49.548;11.926;2023-03-25T06:34:41;4.53;;;0.80;;
21697;SDS011;11010;49.548;11.926;2023-03-25T06:37:09;3.07;;;0.70;;
21697;SDS011;11010;49.548;11.926;2023-03-25T06:39:36;4.93;;;0.90;;
21697;SDS011;11010;49.548;11.926;2023-03-25T06:42:15;5.93;;;1.13;;
21697;SDS011;11010;49.548;11.926;2023-03-25T06:45:02;4.23;;;0.80;;
21697;SDS011;11010;49.548;11.926;2023-03-25T06:47:40;1.60;;;0.60;;
21697;SDS011;11010;49.548;11.926;2023-03-25T06:50:08;5.67;;;0.83;;
21697;SDS011;11010;49.548;11.926;2023-03-25T06:52:35;0.97;;;0.50;;
21697;SDS011;11010;49.548;11.926;2023-03-25T06:55:02;3.93;;;0.80;;
21697;SDS011;11010;49.548;11.926;2023-03-25T06:57:30;4.17;;;0.80;;
21697;SDS011;11010;49.548;11.926;2023-03-25T06:59:57;5.60;;;1.23;;
21697;SDS011;11010;49.548;11.926;2023-03-25T07:02:24;2.23;;;0.57;;
21697;SDS011;11010;49.548;11.926;2023-03-25T07:04:51;4.10;;;0.80;;
21697;SDS011;11010;49.548;11.926;2023-03-25T07:07:18;2.83;;;0.60;;
21697;SDS011;11010;49.548;11.926;2023-03-25T07:09:49;5.00;;;0.90;;
21697;SDS011;11010;49.548;11.926;2023-03-25T07:12:17;1.93;;;0.50;;
21697;SDS011;11010;49.548;11.926;2023-03-25T07:14:49;6.70;;;0.97;;
21697;SDS011;11010;49.548;11.926;2023-03-25T07:17:19;3.53;;;0.70;;
21697;SDS011;11010;49.548;11.926;2023-03-25T07:19:48;2.20;;;0.70;;
21697;SDS011;11010;49.548;11.926;2023-03-25T07:22:16;5.83;;;0.90;;
21697;SDS011;11010;49.548;11.926;2023-03-25T07:24:44;4.90;;;0.80;;
21697;SDS011;11010;49.548;11.926;2023-03-25T07:27:11;2.00;;;0.60;;
21697;SDS011;11010;49.548;11.926;2023-03-25T07:29:43;1.53;;;0.60;;
21697;SDS011;11010;49.548;11.926;2023-03-25T07:32:10;2.33;;;0.70;;
21697;SDS011;11010;49.548;11.926;2023-03-25T07:34:37;4.13;;;0.80;;
21697;SDS011;11010;49.548;11.926;2023-03-25T07:37:04;2.77;;;0.70;;
21697;SDS011;11010;49.548;11.926;2023-03-25T07:39:33;1.80;;;0.50;;
21697;SDS011;11010;49.548;11.926;2023-03-25T07:42:01;3.40;;;0.80;;
21697;SDS011;11010;49.548;11.926;2023-03-25T07:44:44;3.77;;;0.80;;
21697;SDS011;11010;49.548;11.926;2023-03-25T07:47:11;4.73;;;0.80;;
21697;SDS011;11010;49.548;11.926;2023-03-25T07:49:38;4.53;;;0.80;;
21697;SDS011;11010;49.548;11.926;2023-03-25T07:52:06;6.00;;;0.90;;
21697;SDS011;11010;49.548;11.926;2023-03-25T07:54:33;6.90;;;1.23;;
21697;SDS011;11010;49.548;11.926;2023-03-25T07:57:01;4.87;;;0.77;;
21697;SDS011;11010;49.548;11.926;2023-03-25T07:59:28;5.00;;;1.00;;
21697;SDS011;11010;49.548;11.926;2023-03-25T08:01:55;2.63;;;0.60;;
21697;SDS011;11010;49.548;11.926;2023-03-25T08:04:22;4.00;;;0.83;;
21697;SDS011;11010;49.548;11.926;2023-03-25T08:06:49;2.77;;;0.73;;
21697;SDS011;11010;49.548;11.926;2023-03-25T08:09:17;4.03;;;0.97;;
21697;SDS011;11010;49.548;11.926;2023-03-25T08:11:44;2.97;;;0.70;;
21697;SDS011;11010;49.548;11.926;2023-03-25T08:14:11;3.37;;;0.63;;
21697;SDS011;11010;49.548;11.926;2023-03-25T08:16:38;4.63;;;0.87;;
21697;SDS011;11010;49.548;11.926;2023-03-25T08:19:06;5.90;;;1.00;;
21697;SDS011;11010;49.548;11.926;2023-03-25T08:21:33;2.50;;;0.67;;
21697;SDS011;11010;49.548;11.926;2023-03-25T08:24:00;4.53;;;0.83;;
21697;SDS011;11010;49.548;11.926;2023-03-25T08:26:31;0.60;;;0.40;;
21697;SDS011;11010;49.548;11.926;2023-03-25T08:28:59;5.40;;;1.00;;
21697;SDS011;11010;49.548;11.926;2023-03-25T08:31:29;2.20;;;0.60;;
21697;SDS011;11010;49.548;11.926;2023-03-25T08:33:57;2.23;;;0.80;;
21697;SDS011;11010;49.548;11.926;2023-03-25T08:36:26;1.60;;;0.60;;
21697;SDS011;11010;49.548;11.926;2023-03-25T08:38:54;3.97;;;0.80;;
21697;SDS011;11010;49.548;11.926;2023-03-25T08:41:21;3.43;;;0.77;;
21697;SDS011;11010;49.548;11.926;2023-03-25T08:43:48;2.30;;;0.50;;
21697;SDS011;11010;49.548;11.926;2023-03-25T08:46:15;6.83;;;1.20;;
21697;SDS011;11010;49.548;11.926;2023-03-25T08:48:43;4.50;;;1.00;;
21697;SDS011;11010;49.548;11.926;2023-03-25T08:51:10;4.10;;;0.73;;
21697;SDS011;11010;49.548;11.926;2023-03-25T08:53:37;3.93;;;1.00;;
21697;SDS011;11010;49.548;11.926;2023-03-25T08:56:05;6.37;;;0.90;;
21697;SDS011;11010;49.548;11.926;2023-03-25T08:58:32;6.13;;;0.97;;
21697;SDS011;11010;49.548;11.926;2023-03-25T09:00:59;5.27;;;0.90;;
21697;SDS011;11010;49.548;11.926;2023-03-25T09:03:29;3.67;;;0.80;;
21697;SDS011;11010;49.548;11.926;2023-03-25T09:05:56;4.20;;;0.80;;
21697;SDS011;11010;49.548;11.926;2023-03-25T09:08:23;5.67;;;1.00;;
21697;SDS011;11010;49.548;11.926;2023-03-25T09:10:50;7.27;;;1.30;;
21697;SDS011;11010;49.548;11.926;2023-03-25T09:13:21;4.87;;;0.87;;
21697;SDS011;11010;49.548;11.926;2023-03-25T09:15:48;6.37;;;1.00;;
21697;SDS011;11010;49.548;11.926;2023-03-25T09:18:16;4.37;;;0.93;;
21697;SDS011;11010;49.548;11.926;2023-03-25T09:20:43;5.60;;;0.90;;
21697;SDS011;11010;49.548;11.926;2023-03-25T09:23:14;6.80;;;1.00;;
21697;SDS011;11010;49.548;11.926;2023-03-25T09:25:41;1.60;;;0.70;;
21697;SDS011;11010;49.548;11.926;2023-03-25T09:28:08;6.30;;;0.90;;
21697;SDS011;11010;49.548;11.926;2023-03-25T09:30:35;8.33;;;1.10;;
21697;SDS011;11010;49.548;11.926;2023-03-25T09:33:02;2.43;;;0.90;;
21697;SDS011;11010;49.548;11.926;2023-03-25T09:35:30;2.17;;;0.60;;
21697;SDS011;11010;49.548;11.926;2023-03-25T09:37:57;6.07;;;0.83;;
21697;SDS011;11010;49.548;11.926;2023-03-25T09:40:24;6.13;;;1.00;;
21697;SDS011;11010;49.548;11.926;2023-03-25T09:45:26;6.80;;;1.00;;
21697;SDS011;11010;49.548;11.926;2023-03-25T09:51:03;7.73;;;1.00;;
21697;SDS011;11010;49.548;11.926;2023-03-25T09:53:44;5.60;;;1.00;;
21697;SDS011;11010;49.548;11.926;2023-03-25T09:56:20;6.53;;;1.00;;
21697;SDS011;11010;49.548;11.926;2023-03-25T09:59:12;7.20;;;1.10;;
21697;SDS011;11010;49.548;11.926;2023-03-25T10:10:44;2.67;;;0.80;;
21697;SDS011;11010;49.548;11.926;2023-03-25T10:16:01;3.73;;;0.87;;
21697;SDS011;11010;49.548;11.926;2023-03-25T10:21:24;5.07;;;0.90;;
21697;SDS011;11010;49.548;11.926;2023-03-25T10:32:14;4.70;;;0.80;;
21697;SDS011;11010;49.548;11.926;2023-03-25T10:34:47;4.77;;;0.80;;
21697;SDS011;11010;49.548;11.926;2023-03-25T10:37:18;5.73;;;1.13;;
21697;SDS011;11010;49.548;11.926;2023-03-25T10:39:55;5.57;;;0.90;;
21697;SDS011;11010;49.548;11.926;2023-03-25T10:42:32;4.00;;;1.03;;
21697;SDS011;11010;49.548;11.926;2023-03-25T10:45:22;7.70;;;0.80;;
21697;SDS011;11010;49.548;11.926;2023-03-25T10:47:50;5.70;;;1.10;;
21697;SDS011;11010;49.548;11.926;2023-03-25T10:50:21;4.40;;;0.90;;
21697;SDS011;11010;49.548;11.926;2023-03-25T10:52:50;3.47;;;0.90;;
21697;SDS011;11010;49.548;11.926;2023-03-25T10:55:24;4.70;;;0.87;;
21697;SDS011;11010;49.548;11.926;2023-03-25T10:57:58;4.73;;;1.00;;
21697;SDS011;11010;49.548;11.926;2023-03-25T11:00:27;3.97;;;1.00;;
21697;SDS011;11010;49.548;11.926;2023-03-25T11:02:55;7.20;;;1.00;;
21697;SDS011;11010;49.548;11.926;2023-03-25T11:05:23;1.90;;;0.60;;
21697;SDS011;11010;49.548;11.926;2023-03-25T11:07:57;2.77;;;1.00;;
21697;SDS011;11010;49.548;11.926;2023-03-25T11:10:47;3.03;;;0.67;;
21697;SDS011;11010;49.548;11.926;2023-03-25T11:13:17;5.40;;;0.83;;
21697;SDS011;11010;49.548;11.926;2023-03-25T11:15:47;2.33;;;0.60;;
21697;SDS011;11010;49.548;11.926;2023-03-25T11:18:25;3.20;;;0.93;;
21697;SDS011;11010;49.548;11.926;2023-03-25T11:21:00;4.00;;;0.87;;
21697;SDS011;11010;49.548;11.926;2023-03-25T11:23:48;5.37;;;0.90;;
21697;SDS011;11010;49.548;11.926;2023-03-25T11:28:49;2.40;;;0.80;;
21697;SDS011;11010;49.548;11.926;2023-03-25T11:31:23;2.30;;;0.60;;
21697;SDS011;11010;49.548;11.926;2023-03-25T11:36:47;1.63;;;0.50;;
21697;SDS011;11010;49.548;11.926;2023-03-25T11:41:48;4.13;;;0.77;;
21697;SDS011;11010;49.548;11.926;2023-03-25T11:47:03;3.93;;;0.70;;
21697;SDS011;11010;49.548;11.926;2023-03-25T11:49:33;3.37;;;0.90;;
21697;SDS011;11010;49.548;11.926;2023-03-25T11:52:19;3.47;;;0.77;;
21697;SDS011;11010;49.548;11.926;2023-03-25T11:54:53;3.23;;;0.80;;
21697;SDS011;11010;49.548;11.926;2023-03-25T11:57:30;2.97;;;0.60;;
21697;SDS011;11010;49.548;11.926;2023-03-25T12:00:08;4.37;;;0.80;;
21697;SDS011;11010;49.548;11.926;2023-03-25T12:02:48;3.93;;;0.80;;
21697;SDS011;11010;49.548;11.926;2023-03-25T12:05:29;3.70;;;0.67;;
21697;SDS011;11010;49.548;11.926;2023-03-25T12:08:13;5.43;;;1.00;;
21697;SDS011;11010;49.548;11.926;2023-03-25T12:16:45;2.13;;;0.60;;
21697;SDS011;11010;49.548;11.926;2023-03-25T12:25:05;1.23;;;0.50;;
21697;SDS011;11010;49.548;11.926;2023-03-25T12:28:12;2.97;;;0.73;;
21697;SDS011;11010;49.548;11.926;2023-03-25T12:44:33;5.30;;;1.37;;
21697;SDS011;11010;49.548;11.926;2023-03-25T12:47:23;6.03;;;1.37;;
21697;SDS011;11010;49.548;11.926;2023-03-25T12:55:34;3.00;;;1.10;;
21697;SDS011;11010;49.548;11.926;2023-03-25T13:01:31;3.47;;;0.90;;
21697;SDS011;11010;49.548;11.926;2023-03-25T13:07:44;13.23;;;5.97;;
21697;SDS011;11010;49.548;11.926;2023-03-25T13:10:17;6.43;;;1.60;;
21697;SDS011;11010;49.548;11.926;2023-03-25T13:12:51;6.23;;;1.40;;
21697;SDS011;11010;49.548;11.926;2023-03-25T13:18:04;5.87;;;1.40;;
21697;SDS011;11010;49.548;11.926;2023-03-25T13:20:38;5.83;;;1.37;;
21697;SDS011;11010;49.548;11.926;2023-03-25T13:23:11;3.43;;;0.90;;
21697;SDS011;11010;49.548;11.926;2023-03-25T13:28:16;2.80;;;0.80;;
21697;SDS011;11010;49.548;11.926;2023-03-25T13:30:51;2.80;;;0.70;;
21697;SDS011;11010;49.548;11.926;2023-03-25T13:33:22;3.20;;;0.80;;
21697;SDS011;11010;49.548;11.926;2023-03-25T13:36:18;2.43;;;0.83;;
21697;SDS011;11010;49.548;11.926;2023-03-25T13:38:48;2.63;;;0.70;;
21697;SDS011;11010;49.548;11.926;2023-03-25T13:41:27;3.20;;;0.70;;
21697;SDS011;11010;49.548;11.926;2023-03-25T13:52:21;2.97;;;0.60;;
21697;SDS011;11010;49.548;11.926;2023-03-25T13:54:57;0.93;;;0.57;;
21697;SDS011;11010;49.548;11.926;2023-03-25T13:57:50;1.97;;;0.60;;
21697;SDS011;11010;49.548;11.926;2023-03-25T14:09:11;0.80;;;0.50;;
21697;SDS011;11010;49.548;11.926;2023-03-25T14:12:00;3.90;;;0.87;;
21697;SDS011;11010;49.548;11.926;2023-03-25T14:14:41;2.20;;;0.80;;
21697;SDS011;11010;49.548;11.926;2023-03-25T14:17:12;1.83;;;0.60;;
21697;SDS011;11010;49.548;11.926;2023-03-25T14:19:43;3.63;;;0.80;;
21697;SDS011;11010;49.548;11.926;2023-03-25T14:22:16;1.33;;;0.60;;
21697;SDS011;11010;49.548;11.926;2023-03-25T14:24:44;0.97;;;0.60;;
21697;SDS011;11010;49.548;11.926;2023-03-25T14:29:44;0.50;;;0.50;;
21697;SDS011;11010;49.548;11.926;2023-03-25T14:34:48;1.73;;;0.70;;
21697;SDS011;11010;49.548;11.926;2023-03-25T14:37:23;0.57;;;0.50;;
21697;SDS011;11010;49.548;11.926;2023-03-25T14:39:53;2.03;;;0.70;;
21697;SDS011;11010;49.548;11.926;2023-03-25T14:42:26;1.23;;;0.50;;
21697;SDS011;11010;49.548;11.926;2023-03-25T14:47:57;2.10;;;0.60;;
21697;SDS011;11010;49.548;11.926;2023-03-25T14:52:56;0.97;;;0.50;;
21697;SDS011;11010;49.548;11.926;2023-03-25T14:55:33;1.43;;;0.60;;
21697;SDS011;11010;49.548;11.926;2023-03-25T14:58:17;1.87;;;0.70;;
21697;SDS011;11010;49.548;11.926;2023-03-25T15:00:57;1.07;;;0.50;;
21697;SDS011;11010;49.548;11.926;2023-03-25T15:03:33;0.40;;;0.40;;
21697;SDS011;11010;49.548;11.926;2023-03-25T15:06:07;0.53;;;0.50;;
21697;SDS011;11010;49.548;11.926;2023-03-25T15:08:37;1.30;;;0.50;;
21697;SDS011;11010;49.548;11.926;2023-03-25T15:11:08;1.20;;;0.50;;
21697;SDS011;11010;49.548;11.926;2023-03-25T15:13:43;2.23;;;0.80;;
21697;SDS011;11010;49.548;11.926;2023-03-25T15:16:26;1.53;;;0.60;;
21697;SDS011;11010;49.548;11.926;2023-03-25T15:19:17;1.83;;;0.80;;
21697;SDS011;11010;49.548;11.926;2023-03-25T15:24:32;1.20;;;0.57;;
21697;SDS011;11010;49.548;11.926;2023-03-25T15:27:02;2.90;;;0.70;;
21697;SDS011;11010;49.548;11.926;2023-03-25T15:29:42;3.33;;;0.70;;
21697;SDS011;11010;49.548;11.926;2023-03-25T15:40:25;2.73;;;0.70;;
21697;SDS011;11010;49.548;11.926;2023-03-25T15:54:50;1.87;;;0.63;;
21697;SDS011;11010;49.548;11.926;2023-03-25T16:05:34;2.10;;;0.70;;
21697;SDS011;11010;49.548;11.926;2023-03-25T16:08:06;2.43;;;0.70;;
21697;SDS011;11010;49.548;11.926;2023-03-25T16:10:36;3.57;;;0.80;;
21697;SDS011;11010;49.548;11.926;2023-03-25T16:13:08;3.03;;;0.80;;
21697;SDS011;11010;49.548;11.926;2023-03-25T16:15:53;2.93;;;0.70;;
21697;SDS011;11010;49.548;11.926;2023-03-25T16:18:23;3.13;;;0.73;;
21697;SDS011;11010;49.548;11.926;2023-03-25T16:20:55;5.13;;;0.90;;
21697;SDS011;11010;49.548;11.926;2023-03-25T16:23:24;3.23;;;1.00;;
21697;SDS011;11010;49.548;11.926;2023-03-25T16:25:52;2.83;;;0.80;;
21697;SDS011;11010;49.548;11.926;2023-03-25T16:28:25;2.80;;;0.80;;
21697;SDS011;11010;49.548;11.926;2023-03-25T16:30:54;1.77;;;0.60;;
21697;SDS011;11010;49.548;11.926;2023-03-25T16:33:26;2.87;;;0.70;;
21697;SDS011;11010;49.548;11.926;2023-03-25T16:38:27;3.70;;;1.00;;
21697;SDS011;11010;49.548;11.926;2023-03-25T16:41:00;3.90;;;0.80;;
21697;SDS011;11010;49.548;11.926;2023-03-25T16:43:38;5.13;;;0.97;;
21697;SDS011;11010;49.548;11.926;2023-03-25T16:46:06;3.77;;;0.90;;
21697;SDS011;11010;49.548;11.926;2023-03-25T16:48:39;4.37;;;0.90;;
21697;SDS011;11010;49.548;11.926;2023-03-25T16:51:20;4.17;;;0.80;;
21697;SDS011;11010;49.548;11.926;2023-03-25T16:53:55;5.50;;;1.00;;
21697;SDS011;11010;49.548;11.926;2023-03-25T16:56:29;4.77;;;0.80;;
21697;SDS011;11010;49.548;11.926;2023-03-25T17:01:36;3.00;;;0.90;;
21697;SDS011;11010;49.548;11.926;2023-03-25T17:04:15;3.07;;;0.90;;
21697;SDS011;11010;49.548;11.926;2023-03-25T17:06:45;4.53;;;0.90;;
21697;SDS011;11010;49.548;11.926;2023-03-25T17:09:19;4.30;;;0.90;;
21697;SDS011;11010;49.548;11.926;2023-03-25T17:11:52;3.87;;;0.97;;
21697;SDS011;11010;49.548;11.926;2023-03-25T17:14:32;2.80;;;0.80;;
21697;SDS011;11010;49.548;11.926;2023-03-25T17:17:07;5.77;;;0.90;;
21697;SDS011;11010;49.548;11.926;2023-03-25T17:19:43;3.60;;;0.97;;
21697;SDS011;11010;49.548;11.926;2023-03-25T17:22:19;5.30;;;0.80;;
21697;SDS011;11010;49.548;11.926;2023-03-25T17:24:53;2.43;;;0.73;;
21697;SDS011;11010;49.548;11.926;2023-03-25T17:27:31;3.67;;;0.80;;
21697;SDS011;11010;49.548;11.926;2023-03-25T17:33:12;4.43;;;0.90;;
21697;SDS011;11010;49.548;11.926;2023-03-25T17:35:41;3.03;;;0.80;;
21697;SDS011;11010;49.548;11.926;2023-03-25T17:38:15;8.20;;;1.00;;
21697;SDS011;11010;49.548;11.926;2023-03-25T17:41:08;3.87;;;0.70;;
21697;SDS011;11010;49.548;11.926;2023-03-25T17:43:41;4.43;;;0.93;;
21697;SDS011;11010;49.548;11.926;2023-03-25T17:46:08;3.40;;;0.97;;
21697;SDS011;11010;49.548;11.926;2023-03-25T17:48:37;2.93;;;1.00;;
21697;SDS011;11010;49.548;11.926;2023-03-25T17:51:04;2.87;;;0.70;;
21697;SDS011;11010;49.548;11.926;2023-03-25T17:53:31;3.87;;;0.80;;
21697;SDS011;11010;49.548;11.926;2023-03-25T17:55:58;4.47;;;0.90;;
21697;SDS011;11010;49.548;11.926;2023-03-25T17:58:28;5.57;;;1.07;;
21697;SDS011;11010;49.548;11.926;2023-03-25T18:00:56;3.27;;;1.00;;
21697;SDS011;11010;49.548;11.926;2023-03-25T18:03:24;19.63;;;8.23;;
21697;SDS011;11010;49.548;11.926;2023-03-25T18:05:53;54.27;;;21.03;;
21697;SDS011;11010;49.548;11.926;2023-03-25T18:08:21;41.47;;;15.57;;
21697;SDS011;11010;49.548;11.926;2023-03-25T18:10:50;13.90;;;4.80;;
21697;SDS011;11010;49.548;11.926;2023-03-25T18:13:19;9.13;;;2.30;;